sensor_id;sensor_type;location;lat;lon;timestamp;temperature;humidity
22418;DHT22;11376;50.932;4.442;2022-12-07T00:00:53;5.70;99.90
22418;DHT22;11376;50.932;4.442;2022-12-07T00:03:19;5.50;99.90
22418;DHT22;11376;50.932;4.442;2022-12-07T00:05:44;5.50;99.90
22418;DHT22;11376;50.932;4.442;2022-12-07T00:08:10;5.40;99.90
22418;DHT22;11376;50.932;4.442;2022-12-07T00:10:35;5.40;99.90
22418;DHT22;11376;50.932;4.442;2022-12-07T00:13:01;5.30;99.90
22418;DHT22;11376;50.932;4.442;2022-12-07T00:15:27;5.30;99.90
22418;DHT22;11376;50.932;4.442;2022-12-07T00:17:52;5.20;99.90
22418;DHT22;11376;50.932;4.442;2022-12-07T00:20:18;5.20;99.90
22418;DHT22;11376;50.932;4.442;2022-12-07T00:22:43;5.10;99.90
22418;DHT22;11376;50.932;4.442;2022-12-07T00:25:09;5.10;99.90
22418;DHT22;11376;50.932;4.442;2022-12-07T00:27:34;5.10;99.90
22418;DHT22;11376;50.932;4.442;2022-12-07T00:30:00;5.00;99.90
22418;DHT22;11376;50.932;4.442;2022-12-07T00:32:26;4.90;99.90
22418;DHT22;11376;50.932;4.442;2022-12-07T00:34:52;4.90;99.90
22418;DHT22;11376;50.932;4.442;2022-12-07T00:37:17;4.90;99.90
22418;DHT22;11376;50.932;4.442;2022-12-07T00:39:43;4.80;99.90
22418;DHT22;11376;50.932;4.442;2022-12-07T00:42:08;4.80;99.90
22418;DHT22;11376;50.932;4.442;2022-12-07T00:44:34;4.80;99.90
22418;DHT22;11376;50.932;4.442;2022-12-07T00:46:59;4.70;99.90
22418;DHT22;11376;50.932;4.442;2022-12-07T00:49:25;4.70;99.90
22418;DHT22;11376;50.932;4.442;2022-12-07T00:51:50;4.60;99.90
22418;DHT22;11376;50.932;4.442;2022-12-07T00:54:16;4.60;99.90
22418;DHT22;11376;50.932;4.442;2022-12-07T00:56:42;4.60;99.90
22418;DHT22;11376;50.932;4.442;2022-12-07T00:59:10;4.60;99.90
22418;DHT22;11376;50.932;4.442;2022-12-07T01:01:37;4.60;99.90
22418;DHT22;11376;50.932;4.442;2022-12-07T01:04:03;4.70;99.90
22418;DHT22;11376;50.932;4.442;2022-12-07T01:06:29;4.60;99.90
22418;DHT22;11376;50.932;4.442;2022-12-07T01:08:55;4.60;99.90
22418;DHT22;11376;50.932;4.442;2022-12-07T01:11:24;4.60;99.90
22418;DHT22;11376;50.932;4.442;2022-12-07T01:13:52;4.60;99.90
22418;DHT22;11376;50.932;4.442;2022-12-07T01:16:19;4.50;99.90
22418;DHT22;11376;50.932;4.442;2022-12-07T01:18:47;4.50;99.90
22418;DHT22;11376;50.932;4.442;2022-12-07T01:21:16;4.50;99.90
22418;DHT22;11376;50.932;4.442;2022-12-07T01:23:42;4.50;99.90
22418;DHT22;11376;50.932;4.442;2022-12-07T01:26:11;4.50;99.90
22418;DHT22;11376;50.932;4.442;2022-12-07T01:28:37;4.50;99.90
22418;DHT22;11376;50.932;4.442;2022-12-07T01:31:05;4.50;99.90
22418;DHT22;11376;50.932;4.442;2022-12-07T01:33:36;4.60;99.90
22418;DHT22;11376;50.932;4.442;2022-12-07T01:36:29;4.60;99.90
22418;DHT22;11376;50.932;4.442;2022-12-07T01:38:58;4.60;99.90
22418;DHT22;11376;50.932;4.442;2022-12-07T01:41:26;4.60;99.90
22418;DHT22;11376;50.932;4.442;2022-12-07T01:46:37;4.90;99.90
22418;DHT22;11376;50.932;4.442;2022-12-07T01:49:06;4.80;99.90
22418;DHT22;11376;50.932;4.442;2022-12-07T01:51:32;4.80;99.90
22418;DHT22;11376;50.932;4.442;2022-12-07T01:53:58;4.80;99.90
22418;DHT22;11376;50.932;4.442;2022-12-07T01:56:27;4.80;99.90
22418;DHT22;11376;50.932;4.442;2022-12-07T01:58:54;4.90;99.90
22418;DHT22;11376;50.932;4.442;2022-12-07T02:01:21;5.10;99.90
22418;DHT22;11376;50.932;4.442;2022-12-07T02:03:46;5.10;99.90
22418;DHT22;11376;50.932;4.442;2022-12-07T02:06:16;5.00;99.90
22418;DHT22;11376;50.932;4.442;2022-12-07T02:08:44;5.00;99.90
22418;DHT22;11376;50.932;4.442;2022-12-07T02:11:10;5.00;99.90
22418;DHT22;11376;50.932;4.442;2022-12-07T02:13:38;5.00;99.90
22418;DHT22;11376;50.932;4.442;2022-12-07T02:21:36;5.20;99.90
22418;DHT22;11376;50.932;4.442;2022-12-07T02:29:54;5.10;99.90
22418;DHT22;11376;50.932;4.442;2022-12-07T02:35:01;5.00;99.90
22418;DHT22;11376;50.932;4.442;2022-12-07T02:40:46;5.00;99.90
22418;DHT22;11376;50.932;4.442;2022-12-07T02:45:47;4.90;99.90
22418;DHT22;11376;50.932;4.442;2022-12-07T02:48:16;4.90;99.90
22418;DHT22;11376;50.932;4.442;2022-12-07T02:50:49;4.80;99.90
22418;DHT22;11376;50.932;4.442;2022-12-07T02:53:35;4.80;99.90
22418;DHT22;11376;50.932;4.442;2022-12-07T02:56:39;4.70;99.90
22418;DHT22;11376;50.932;4.442;2022-12-07T03:02:19;4.60;99.90
22418;DHT22;11376;50.932;4.442;2022-12-07T03:12:53;4.60;99.90
22418;DHT22;11376;50.932;4.442;2022-12-07T03:15:54;4.70;99.90
22418;DHT22;11376;50.932;4.442;2022-12-07T03:18:18;4.80;99.90
22418;DHT22;11376;50.932;4.442;2022-12-07T03:20:47;4.90;99.90
22418;DHT22;11376;50.932;4.442;2022-12-07T03:23:15;4.80;99.90
22418;DHT22;11376;50.932;4.442;2022-12-07T03:25:47;4.90;99.90
22418;DHT22;11376;50.932;4.442;2022-12-07T03:28:16;4.80;99.90
22418;DHT22;11376;50.932;4.442;2022-12-07T03:31:17;4.80;99.90
22418;DHT22;11376;50.932;4.442;2022-12-07T03:36:48;4.70;99.90
22418;DHT22;11376;50.932;4.442;2022-12-07T03:39:26;4.70;99.90
22418;DHT22;11376;50.932;4.442;2022-12-07T03:41:54;4.70;99.90
22418;DHT22;11376;50.932;4.442;2022-12-07T03:44:22;4.60;99.90
22418;DHT22;11376;50.932;4.442;2022-12-07T03:49:52;4.50;99.90
22418;DHT22;11376;50.932;4.442;2022-12-07T03:55:27;4.40;99.90
22418;DHT22;11376;50.932;4.442;2022-12-07T03:57:56;4.40;99.90
22418;DHT22;11376;50.932;4.442;2022-12-07T04:00:23;4.40;99.90
22418;DHT22;11376;50.932;4.442;2022-12-07T04:02:52;4.30;99.90
22418;DHT22;11376;50.932;4.442;2022-12-07T04:05:18;4.30;99.90
22418;DHT22;11376;50.932;4.442;2022-12-07T04:07:44;4.30;99.90
22418;DHT22;11376;50.932;4.442;2022-12-07T04:10:10;4.30;99.90
22418;DHT22;11376;50.932;4.442;2022-12-07T04:12:35;4.30;99.90
22418;DHT22;11376;50.932;4.442;2022-12-07T04:15:01;4.30;99.90
22418;DHT22;11376;50.932;4.442;2022-12-07T04:17:27;4.20;99.90
22418;DHT22;11376;50.932;4.442;2022-12-07T04:19:52;4.20;99.90
22418;DHT22;11376;50.932;4.442;2022-12-07T04:22:18;4.20;99.90
22418;DHT22;11376;50.932;4.442;2022-12-07T04:24:43;4.10;99.90
22418;DHT22;11376;50.932;4.442;2022-12-07T04:27:09;4.10;99.90
22418;DHT22;11376;50.932;4.442;2022-12-07T04:29:35;4.10;99.90
22418;DHT22;11376;50.932;4.442;2022-12-07T04:32:00;4.30;99.90
22418;DHT22;11376;50.932;4.442;2022-12-07T04:34:26;4.40;99.90
22418;DHT22;11376;50.932;4.442;2022-12-07T04:36:51;4.30;99.90
22418;DHT22;11376;50.932;4.442;2022-12-07T04:39:23;4.30;99.90
22418;DHT22;11376;50.932;4.442;2022-12-07T04:41:49;4.30;99.90
22418;DHT22;11376;50.932;4.442;2022-12-07T04:44:16;4.30;99.90
22418;DHT22;11376;50.932;4.442;2022-12-07T04:46:42;4.30;99.90
22418;DHT22;11376;50.932;4.442;2022-12-07T04:49:08;4.20;99.90
22418;DHT22;11376;50.932;4.442;2022-12-07T04:51:35;4.20;99.90
22418;DHT22;11376;50.932;4.442;2022-12-07T04:54:00;4.20;99.90
22418;DHT22;11376;50.932;4.442;2022-12-07T04:56:26;4.20;99.90
22418;DHT22;11376;50.932;4.442;2022-12-07T04:58:53;4.20;99.90
22418;DHT22;11376;50.932;4.442;2022-12-07T05:01:19;4.10;99.90
22418;DHT22;11376;50.932;4.442;2022-12-07T05:03:45;4.10;99.90
22418;DHT22;11376;50.932;4.442;2022-12-07T05:06:11;4.10;99.90
22418;DHT22;11376;50.932;4.442;2022-12-07T05:08:37;4.10;99.90
22418;DHT22;11376;50.932;4.442;2022-12-07T05:11:04;4.10;99.90
22418;DHT22;11376;50.932;4.442;2022-12-07T05:13:30;4.10;99.90
22418;DHT22;11376;50.932;4.442;2022-12-07T05:15:55;4.10;99.90
22418;DHT22;11376;50.932;4.442;2022-12-07T05:18:21;4.10;99.90
22418;DHT22;11376;50.932;4.442;2022-12-07T05:20:47;4.10;99.90
22418;DHT22;11376;50.932;4.442;2022-12-07T05:23:12;4.20;99.90
22418;DHT22;11376;50.932;4.442;2022-12-07T05:25:38;4.20;99.90
22418;DHT22;11376;50.932;4.442;2022-12-07T05:28:05;4.30;99.90
22418;DHT22;11376;50.932;4.442;2022-12-07T05:30:31;4.50;99.90
22418;DHT22;11376;50.932;4.442;2022-12-07T05:32:56;4.60;99.90
22418;DHT22;11376;50.932;4.442;2022-12-07T05:35:22;4.50;99.90
22418;DHT22;11376;50.932;4.442;2022-12-07T05:37:47;4.50;99.90
22418;DHT22;11376;50.932;4.442;2022-12-07T05:40:14;4.50;99.90
22418;DHT22;11376;50.932;4.442;2022-12-07T05:42:40;4.50;99.90
22418;DHT22;11376;50.932;4.442;2022-12-07T05:45:07;4.50;99.90
22418;DHT22;11376;50.932;4.442;2022-12-07T05:47:33;4.60;99.90
22418;DHT22;11376;50.932;4.442;2022-12-07T05:49:59;4.60;99.90
22418;DHT22;11376;50.932;4.442;2022-12-07T05:52:24;4.50;99.90
22418;DHT22;11376;50.932;4.442;2022-12-07T05:54:50;4.60;99.90
22418;DHT22;11376;50.932;4.442;2022-12-07T05:57:16;4.50;99.90
22418;DHT22;11376;50.932;4.442;2022-12-07T05:59:41;4.60;99.90
22418;DHT22;11376;50.932;4.442;2022-12-07T06:02:11;4.60;99.90
22418;DHT22;11376;50.932;4.442;2022-12-07T06:04:39;4.70;99.90
22418;DHT22;11376;50.932;4.442;2022-12-07T06:07:06;4.60;99.90
22418;DHT22;11376;50.932;4.442;2022-12-07T06:09:32;4.60;99.90
22418;DHT22;11376;50.932;4.442;2022-12-07T06:11:58;4.60;99.90
22418;DHT22;11376;50.932;4.442;2022-12-07T06:14:43;4.60;99.90
22418;DHT22;11376;50.932;4.442;2022-12-07T06:17:10;4.60;99.90
22418;DHT22;11376;50.932;4.442;2022-12-07T06:19:36;4.60;99.90
22418;DHT22;11376;50.932;4.442;2022-12-07T06:22:02;4.70;99.90
22418;DHT22;11376;50.932;4.442;2022-12-07T06:24:30;4.60;99.90
22418;DHT22;11376;50.932;4.442;2022-12-07T06:26:55;4.60;99.90
22418;DHT22;11376;50.932;4.442;2022-12-07T06:29:21;4.60;99.90
22418;DHT22;11376;50.932;4.442;2022-12-07T06:31:47;4.50;99.90
22418;DHT22;11376;50.932;4.442;2022-12-07T06:34:16;4.50;99.90
22418;DHT22;11376;50.932;4.442;2022-12-07T06:36:42;4.50;99.90
22418;DHT22;11376;50.932;4.442;2022-12-07T06:39:08;4.50;99.90
22418;DHT22;11376;50.932;4.442;2022-12-07T06:41:36;4.50;99.90
22418;DHT22;11376;50.932;4.442;2022-12-07T06:44:02;4.60;99.90
22418;DHT22;11376;50.932;4.442;2022-12-07T06:46:28;4.60;99.90
22418;DHT22;11376;50.932;4.442;2022-12-07T06:48:54;4.80;99.90
22418;DHT22;11376;50.932;4.442;2022-12-07T06:51:19;5.10;99.90
22418;DHT22;11376;50.932;4.442;2022-12-07T06:53:45;5.10;99.90
22418;DHT22;11376;50.932;4.442;2022-12-07T06:56:10;5.10;99.90
22418;DHT22;11376;50.932;4.442;2022-12-07T06:58:36;5.00;99.90
22418;DHT22;11376;50.932;4.442;2022-12-07T07:01:02;4.90;99.90
22418;DHT22;11376;50.932;4.442;2022-12-07T07:03:29;4.80;99.90
22418;DHT22;11376;50.932;4.442;2022-12-07T07:05:54;4.80;99.90
22418;DHT22;11376;50.932;4.442;2022-12-07T07:08:20;4.80;99.90
22418;DHT22;11376;50.932;4.442;2022-12-07T07:10:46;4.90;99.90
22418;DHT22;11376;50.932;4.442;2022-12-07T07:13:11;5.00;99.90
22418;DHT22;11376;50.932;4.442;2022-12-07T07:15:38;4.90;99.90
22418;DHT22;11376;50.932;4.442;2022-12-07T07:18:04;4.90;99.90
22418;DHT22;11376;50.932;4.442;2022-12-07T07:20:30;5.10;99.90
22418;DHT22;11376;50.932;4.442;2022-12-07T07:22:55;5.00;99.90
22418;DHT22;11376;50.932;4.442;2022-12-07T07:25:21;5.00;99.90
22418;DHT22;11376;50.932;4.442;2022-12-07T07:27:47;4.80;99.90
22418;DHT22;11376;50.932;4.442;2022-12-07T07:30:12;4.70;99.90
22418;DHT22;11376;50.932;4.442;2022-12-07T07:32:38;4.60;99.90
22418;DHT22;11376;50.932;4.442;2022-12-07T07:35:04;4.50;99.90
22418;DHT22;11376;50.932;4.442;2022-12-07T07:37:30;4.50;99.90
22418;DHT22;11376;50.932;4.442;2022-12-07T07:39:55;4.40;99.90
22418;DHT22;11376;50.932;4.442;2022-12-07T07:42:21;4.40;99.90
22418;DHT22;11376;50.932;4.442;2022-12-07T07:44:47;4.30;99.90
22418;DHT22;11376;50.932;4.442;2022-12-07T07:47:13;4.30;99.90
22418;DHT22;11376;50.932;4.442;2022-12-07T07:49:38;4.30;99.90
22418;DHT22;11376;50.932;4.442;2022-12-07T07:52:05;4.30;99.90
22418;DHT22;11376;50.932;4.442;2022-12-07T07:54:31;4.30;99.90
22418;DHT22;11376;50.932;4.442;2022-12-07T07:56:57;4.30;99.90
22418;DHT22;11376;50.932;4.442;2022-12-07T07:59:22;4.20;99.90
22418;DHT22;11376;50.932;4.442;2022-12-07T08:01:48;4.20;99.90
22418;DHT22;11376;50.932;4.442;2022-12-07T08:04:14;4.10;99.90
22418;DHT22;11376;50.932;4.442;2022-12-07T08:06:39;4.10;99.90
22418;DHT22;11376;50.932;4.442;2022-12-07T08:09:07;4.10;99.90
22418;DHT22;11376;50.932;4.442;2022-12-07T08:11:33;4.00;99.90
22418;DHT22;11376;50.932;4.442;2022-12-07T08:13:59;4.00;99.90
22418;DHT22;11376;50.932;4.442;2022-12-07T08:16:25;4.00;99.90
22418;DHT22;11376;50.932;4.442;2022-12-07T08:18:51;4.00;99.90
22418;DHT22;11376;50.932;4.442;2022-12-07T08:21:16;4.00;99.90
22418;DHT22;11376;50.932;4.442;2022-12-07T08:23:42;4.00;99.90
22418;DHT22;11376;50.932;4.442;2022-12-07T08:26:11;4.10;99.90
22418;DHT22;11376;50.932;4.442;2022-12-07T08:28:37;4.10;99.90
22418;DHT22;11376;50.932;4.442;2022-12-07T08:31:05;4.10;99.90
22418;DHT22;11376;50.932;4.442;2022-12-07T08:33:32;4.20;99.90
22418;DHT22;11376;50.932;4.442;2022-12-07T08:36:05;4.20;99.90
22418;DHT22;11376;50.932;4.442;2022-12-07T08:38:32;4.30;99.90
22418;DHT22;11376;50.932;4.442;2022-12-07T08:40:58;4.30;99.90
22418;DHT22;11376;50.932;4.442;2022-12-07T08:43:24;4.40;99.90
22418;DHT22;11376;50.932;4.442;2022-12-07T08:48:37;4.50;99.90
22418;DHT22;11376;50.932;4.442;2022-12-07T08:51:04;4.60;99.90
22418;DHT22;11376;50.932;4.442;2022-12-07T08:53:30;4.90;99.90
22418;DHT22;11376;50.932;4.442;2022-12-07T08:55:56;4.90;99.90
22418;DHT22;11376;50.932;4.442;2022-12-07T08:58:23;5.00;99.90
22418;DHT22;11376;50.932;4.442;2022-12-07T09:00:48;5.20;99.90
22418;DHT22;11376;50.932;4.442;2022-12-07T09:03:14;5.30;99.90
22418;DHT22;11376;50.932;4.442;2022-12-07T09:05:40;5.40;99.90
22418;DHT22;11376;50.932;4.442;2022-12-07T09:08:06;5.50;99.90
22418;DHT22;11376;50.932;4.442;2022-12-07T09:10:32;5.50;99.90
22418;DHT22;11376;50.932;4.442;2022-12-07T09:12:58;5.60;99.90
22418;DHT22;11376;50.932;4.442;2022-12-07T09:15:27;5.70;99.90
22418;DHT22;11376;50.932;4.442;2022-12-07T09:17:53;5.80;99.90
22418;DHT22;11376;50.932;4.442;2022-12-07T09:20:19;5.80;99.90
22418;DHT22;11376;50.932;4.442;2022-12-07T09:22:44;5.90;99.90
22418;DHT22;11376;50.932;4.442;2022-12-07T09:25:10;6.00;99.90
22418;DHT22;11376;50.932;4.442;2022-12-07T09:27:36;6.00;99.90
22418;DHT22;11376;50.932;4.442;2022-12-07T09:30:02;6.10;99.90
22418;DHT22;11376;50.932;4.442;2022-12-07T09:32:28;6.10;99.90
22418;DHT22;11376;50.932;4.442;2022-12-07T09:34:53;6.40;99.90
22418;DHT22;11376;50.932;4.442;2022-12-07T09:37:19;6.40;99.90
22418;DHT22;11376;50.932;4.442;2022-12-07T09:39:45;6.40;99.90
22418;DHT22;11376;50.932;4.442;2022-12-07T09:42:24;6.40;99.90
22418;DHT22;11376;50.932;4.442;2022-12-07T09:44:51;6.60;99.90
22418;DHT22;11376;50.932;4.442;2022-12-07T09:47:17;6.40;99.90
22418;DHT22;11376;50.932;4.442;2022-12-07T09:49:42;6.30;99.90
22418;DHT22;11376;50.932;4.442;2022-12-07T09:54:35;6.30;99.90
22418;DHT22;11376;50.932;4.442;2022-12-07T09:57:02;6.20;99.90
22418;DHT22;11376;50.932;4.442;2022-12-07T09:59:27;6.30;99.90
22418;DHT22;11376;50.932;4.442;2022-12-07T10:01:53;6.40;99.90
22418;DHT22;11376;50.932;4.442;2022-12-07T10:04:22;6.50;99.90
22418;DHT22;11376;50.932;4.442;2022-12-07T10:06:48;6.80;99.90
22418;DHT22;11376;50.932;4.442;2022-12-07T10:09:18;7.10;99.90
22418;DHT22;11376;50.932;4.442;2022-12-07T10:12:05;7.80;99.90
22418;DHT22;11376;50.932;4.442;2022-12-07T10:14:34;8.00;99.90
22418;DHT22;11376;50.932;4.442;2022-12-07T10:17:00;7.50;99.90
22418;DHT22;11376;50.932;4.442;2022-12-07T10:19:32;7.60;99.90
22418;DHT22;11376;50.932;4.442;2022-12-07T10:22:12;7.20;99.90
22418;DHT22;11376;50.932;4.442;2022-12-07T10:24:39;7.30;99.90
22418;DHT22;11376;50.932;4.442;2022-12-07T10:27:21;7.10;99.90
22418;DHT22;11376;50.932;4.442;2022-12-07T10:29:49;7.10;99.90
22418;DHT22;11376;50.932;4.442;2022-12-07T10:34:42;7.10;99.90
22418;DHT22;11376;50.932;4.442;2022-12-07T10:42:27;8.70;99.90
22418;DHT22;11376;50.932;4.442;2022-12-07T10:47:48;8.10;99.90
22418;DHT22;11376;50.932;4.442;2022-12-07T10:53:30;9.50;99.90
22418;DHT22;11376;50.932;4.442;2022-12-07T10:56:09;10.00;99.90
22418;DHT22;11376;50.932;4.442;2022-12-07T11:01:43;11.90;99.90
22418;DHT22;11376;50.932;4.442;2022-12-07T11:07:23;12.90;99.90
22418;DHT22;11376;50.932;4.442;2022-12-07T11:10:18;14.40;99.90
22418;DHT22;11376;50.932;4.442;2022-12-07T11:20:32;10.80;99.90
22418;DHT22;11376;50.932;4.442;2022-12-07T11:23:35;10.00;99.90
22418;DHT22;11376;50.932;4.442;2022-12-07T11:29:17;9.10;99.90
22418;DHT22;11376;50.932;4.442;2022-12-07T11:32:13;8.90;99.90
22418;DHT22;11376;50.932;4.442;2022-12-07T11:37:37;11.20;99.90
22418;DHT22;11376;50.932;4.442;2022-12-07T11:40:30;13.40;99.90
22418;DHT22;11376;50.932;4.442;2022-12-07T11:45:41;14.20;99.90
22418;DHT22;11376;50.932;4.442;2022-12-07T11:50:57;12.30;99.90
22418;DHT22;11376;50.932;4.442;2022-12-07T11:53:58;12.40;99.90
22418;DHT22;11376;50.932;4.442;2022-12-07T11:56:26;12.50;99.90
22418;DHT22;11376;50.932;4.442;2022-12-07T11:59:10;11.90;99.90
22418;DHT22;11376;50.932;4.442;2022-12-07T12:01:57;11.60;99.90
22418;DHT22;11376;50.932;4.442;2022-12-07T12:04:39;11.30;99.90
22418;DHT22;11376;50.932;4.442;2022-12-07T12:07:17;10.90;99.90
22418;DHT22;11376;50.932;4.442;2022-12-07T12:09:58;10.20;99.90
22418;DHT22;11376;50.932;4.442;2022-12-07T12:12:59;9.80;99.90
22418;DHT22;11376;50.932;4.442;2022-12-07T12:21:06;9.50;99.90
22418;DHT22;11376;50.932;4.442;2022-12-07T12:23:46;9.00;99.90
22418;DHT22;11376;50.932;4.442;2022-12-07T12:26:30;8.90;99.90
22418;DHT22;11376;50.932;4.442;2022-12-07T12:29:00;9.80;99.90
22418;DHT22;11376;50.932;4.442;2022-12-07T12:33:55;12.30;99.90
22418;DHT22;11376;50.932;4.442;2022-12-07T12:49:38;15.80;99.90
22418;DHT22;11376;50.932;4.442;2022-12-07T12:57:34;13.40;99.90
22418;DHT22;11376;50.932;4.442;2022-12-07T13:00:14;12.40;99.90
22418;DHT22;11376;50.932;4.442;2022-12-07T13:02:53;11.90;99.90
22418;DHT22;11376;50.932;4.442;2022-12-07T13:05:30;11.30;99.90
22418;DHT22;11376;50.932;4.442;2022-12-07T13:08:15;10.60;99.90
22418;DHT22;11376;50.932;4.442;2022-12-07T13:10:45;10.20;99.90
22418;DHT22;11376;50.932;4.442;2022-12-07T13:15:46;9.50;99.90
22418;DHT22;11376;50.932;4.442;2022-12-07T13:23:38;9.20;99.90
22418;DHT22;11376;50.932;4.442;2022-12-07T13:28:52;9.10;99.90
22418;DHT22;11376;50.932;4.442;2022-12-07T13:34:01;9.00;99.90
22418;DHT22;11376;50.932;4.442;2022-12-07T13:36:31;8.80;99.90
22418;DHT22;11376;50.932;4.442;2022-12-07T13:39:20;8.70;99.90
22418;DHT22;11376;50.932;4.442;2022-12-07T13:42:56;9.00;99.90
22418;DHT22;11376;50.932;4.442;2022-12-07T13:45:28;9.10;99.90
22418;DHT22;11376;50.932;4.442;2022-12-07T13:48:33;9.30;99.90
22418;DHT22;11376;50.932;4.442;2022-12-07T13:51:02;9.40;99.90
22418;DHT22;11376;50.932;4.442;2022-12-07T13:53:28;9.20;99.90
22418;DHT22;11376;50.932;4.442;2022-12-07T13:55:57;9.00;99.90
22418;DHT22;11376;50.932;4.442;2022-12-07T13:58:24;8.90;99.90
22418;DHT22;11376;50.932;4.442;2022-12-07T14:00:49;8.70;99.90
22418;DHT22;11376;50.932;4.442;2022-12-07T14:05:42;8.20;99.90
22418;DHT22;11376;50.932;4.442;2022-12-07T14:10:38;7.10;99.90
22418;DHT22;11376;50.932;4.442;2022-12-07T14:13:31;6.80;99.90
22418;DHT22;11376;50.932;4.442;2022-12-07T14:15:58;6.60;99.90
22418;DHT22;11376;50.932;4.442;2022-12-07T14:18:27;6.60;99.90
22418;DHT22;11376;50.932;4.442;2022-12-07T14:23:40;6.40;99.90
22418;DHT22;11376;50.932;4.442;2022-12-07T14:26:19;6.50;99.90
22418;DHT22;11376;50.932;4.442;2022-12-07T14:28:45;6.70;99.90
22418;DHT22;11376;50.932;4.442;2022-12-07T14:31:17;6.70;99.90
22418;DHT22;11376;50.932;4.442;2022-12-07T14:33:43;6.70;99.90
22418;DHT22;11376;50.932;4.442;2022-12-07T14:36:12;6.80;99.90
22418;DHT22;11376;50.932;4.442;2022-12-07T14:38:38;6.80;99.90
22418;DHT22;11376;50.932;4.442;2022-12-07T14:41:09;6.80;99.90
22418;DHT22;11376;50.932;4.442;2022-12-07T14:43:56;7.00;99.90
22418;DHT22;11376;50.932;4.442;2022-12-07T14:46:21;7.00;99.90
22418;DHT22;11376;50.932;4.442;2022-12-07T14:48:47;6.90;99.90
22418;DHT22;11376;50.932;4.442;2022-12-07T14:51:13;7.00;99.90
22418;DHT22;11376;50.932;4.442;2022-12-07T14:53:46;7.00;99.90
22418;DHT22;11376;50.932;4.442;2022-12-07T14:56:13;6.90;99.90
22418;DHT22;11376;50.932;4.442;2022-12-07T14:58:39;7.00;99.90
22418;DHT22;11376;50.932;4.442;2022-12-07T15:01:05;6.90;99.90
22418;DHT22;11376;50.932;4.442;2022-12-07T15:03:30;6.80;99.90
22418;DHT22;11376;50.932;4.442;2022-12-07T15:05:56;6.90;99.90
22418;DHT22;11376;50.932;4.442;2022-12-07T15:08:22;6.90;99.90
22418;DHT22;11376;50.932;4.442;2022-12-07T15:10:48;7.00;99.90
22418;DHT22;11376;50.932;4.442;2022-12-07T15:13:13;6.90;99.90
22418;DHT22;11376;50.932;4.442;2022-12-07T15:15:57;6.90;99.90
22418;DHT22;11376;50.932;4.442;2022-12-07T15:18:23;6.80;99.90
22418;DHT22;11376;50.932;4.442;2022-12-07T15:20:50;6.80;99.90
22418;DHT22;11376;50.932;4.442;2022-12-07T15:23:16;6.80;99.90
22418;DHT22;11376;50.932;4.442;2022-12-07T15:25:43;6.70;99.90
22418;DHT22;11376;50.932;4.442;2022-12-07T15:28:09;6.70;99.90
22418;DHT22;11376;50.932;4.442;2022-12-07T15:30:37;6.50;99.90
22418;DHT22;11376;50.932;4.442;2022-12-07T15:33:03;6.40;99.90
22418;DHT22;11376;50.932;4.442;2022-12-07T15:35:28;6.40;99.90
22418;DHT22;11376;50.932;4.442;2022-12-07T15:37:54;6.40;99.90
22418;DHT22;11376;50.932;4.442;2022-12-07T15:40:19;6.40;99.90
22418;DHT22;11376;50.932;4.442;2022-12-07T15:42:45;6.40;99.90
22418;DHT22;11376;50.932;4.442;2022-12-07T15:45:11;6.30;99.90
22418;DHT22;11376;50.932;4.442;2022-12-07T15:47:40;6.40;99.90
22418;DHT22;11376;50.932;4.442;2022-12-07T15:50:09;6.50;99.90
22418;DHT22;11376;50.932;4.442;2022-12-07T15:52:35;6.50;99.90
22418;DHT22;11376;50.932;4.442;2022-12-07T15:55:02;6.60;99.90
22418;DHT22;11376;50.932;4.442;2022-12-07T15:57:29;6.70;99.90
22418;DHT22;11376;50.932;4.442;2022-12-07T15:59:55;6.70;99.90
22418;DHT22;11376;50.932;4.442;2022-12-07T16:02:21;6.80;99.90
22418;DHT22;11376;50.932;4.442;2022-12-07T16:04:47;6.80;99.90
22418;DHT22;11376;50.932;4.442;2022-12-07T16:07:13;6.80;99.90
22418;DHT22;11376;50.932;4.442;2022-12-07T16:09:41;6.70;99.90
22418;DHT22;11376;50.932;4.442;2022-12-07T16:12:07;6.40;99.90
22418;DHT22;11376;50.932;4.442;2022-12-07T16:14:33;6.30;99.90
22418;DHT22;11376;50.932;4.442;2022-12-07T16:16:59;6.20;99.90
22418;DHT22;11376;50.932;4.442;2022-12-07T16:19:25;6.10;99.90
22418;DHT22;11376;50.932;4.442;2022-12-07T16:21:50;6.10;99.90
22418;DHT22;11376;50.932;4.442;2022-12-07T16:24:16;6.20;99.90
22418;DHT22;11376;50.932;4.442;2022-12-07T16:26:42;6.40;99.90
22418;DHT22;11376;50.932;4.442;2022-12-07T16:29:11;6.50;99.90
22418;DHT22;11376;50.932;4.442;2022-12-07T16:31:37;6.60;99.90
22418;DHT22;11376;50.932;4.442;2022-12-07T16:34:03;6.50;99.90
22418;DHT22;11376;50.932;4.442;2022-12-07T16:36:29;6.50;99.90
22418;DHT22;11376;50.932;4.442;2022-12-07T16:38:55;6.40;99.90
22418;DHT22;11376;50.932;4.442;2022-12-07T16:41:20;6.40;99.90
22418;DHT22;11376;50.932;4.442;2022-12-07T16:43:46;6.30;99.90
22418;DHT22;11376;50.932;4.442;2022-12-07T16:46:12;6.30;99.90
22418;DHT22;11376;50.932;4.442;2022-12-07T16:48:39;6.30;99.90
22418;DHT22;11376;50.932;4.442;2022-12-07T16:51:07;6.30;99.90
22418;DHT22;11376;50.932;4.442;2022-12-07T16:53:35;6.30;99.90
22418;DHT22;11376;50.932;4.442;2022-12-07T16:56:01;6.20;99.90
22418;DHT22;11376;50.932;4.442;2022-12-07T16:58:27;6.20;99.90
22418;DHT22;11376;50.932;4.442;2022-12-07T17:00:52;6.20;99.90
22418;DHT22;11376;50.932;4.442;2022-12-07T17:03:18;6.10;99.90
22418;DHT22;11376;50.932;4.442;2022-12-07T17:05:45;6.00;99.90
22418;DHT22;11376;50.932;4.442;2022-12-07T17:08:12;5.90;99.90
22418;DHT22;11376;50.932;4.442;2022-12-07T17:10:40;5.90;99.90
22418;DHT22;11376;50.932;4.442;2022-12-07T17:13:06;5.90;99.90
22418;DHT22;11376;50.932;4.442;2022-12-07T17:16:02;5.80;99.90
22418;DHT22;11376;50.932;4.442;2022-12-07T17:18:31;5.90;99.90
22418;DHT22;11376;50.932;4.442;2022-12-07T17:21:08;6.10;99.90
22418;DHT22;11376;50.932;4.442;2022-12-07T17:23:35;6.00;99.90
22418;DHT22;11376;50.932;4.442;2022-12-07T17:26:09;6.00;99.90
22418;DHT22;11376;50.932;4.442;2022-12-07T17:28:36;5.90;99.90
22418;DHT22;11376;50.932;4.442;2022-12-07T17:31:05;5.80;99.90
22418;DHT22;11376;50.932;4.442;2022-12-07T17:33:32;5.80;99.90
22418;DHT22;11376;50.932;4.442;2022-12-07T17:35:58;5.70;99.90
22418;DHT22;11376;50.932;4.442;2022-12-07T17:38:23;5.70;99.90
22418;DHT22;11376;50.932;4.442;2022-12-07T17:40:49;5.70;99.90
22418;DHT22;11376;50.932;4.442;2022-12-07T17:43:14;5.70;99.90
22418;DHT22;11376;50.932;4.442;2022-12-07T17:45:40;5.70;99.90
22418;DHT22;11376;50.932;4.442;2022-12-07T17:48:06;5.70;99.90
22418;DHT22;11376;50.932;4.442;2022-12-07T17:50:31;5.70;99.90
22418;DHT22;11376;50.932;4.442;2022-12-07T17:53:26;5.70;99.90
22418;DHT22;11376;50.932;4.442;2022-12-07T17:55:55;5.70;99.90
22418;DHT22;11376;50.932;4.442;2022-12-07T17:58:20;5.60;99.90
22418;DHT22;11376;50.932;4.442;2022-12-07T18:00:46;5.60;99.90
22418;DHT22;11376;50.932;4.442;2022-12-07T18:03:11;5.60;99.90
22418;DHT22;11376;50.932;4.442;2022-12-07T18:05:37;5.60;99.90
22418;DHT22;11376;50.932;4.442;2022-12-07T18:08:04;5.60;99.90
22418;DHT22;11376;50.932;4.442;2022-12-07T18:10:30;5.60;99.90